sensor_id;sensor_type;location;lat;lon;timestamp;P1;durP1;ratioP1;P2;durP2;ratioP2
65189;SDS011;51777;53.570;9.984;2022-07-23T00:00:16;3.78;;;0.75;;
65189;SDS011;51777;53.570;9.984;2022-07-23T00:02:42;4.03;;;0.95;;
65189;SDS011;51777;53.570;9.984;2022-07-23T00:05:09;3.05;;;0.80;;
65189;SDS011;51777;53.570;9.984;2022-07-23T00:07:35;3.22;;;1.00;;
65189;SDS011;51777;53.570;9.984;2022-07-23T00:10:01;4.72;;;0.98;;
65189;SDS011;51777;53.570;9.984;2022-07-23T00:12:27;5.57;;;1.08;;
65189;SDS011;51777;53.570;9.984;2022-07-23T00:14:52;4.47;;;1.13;;
65189;SDS011;51777;53.570;9.984;2022-07-23T00:17:18;3.33;;;0.70;;
65189;SDS011;51777;53.570;9.984;2022-07-23T00:19:43;2.00;;;0.80;;
65189;SDS011;51777;53.570;9.984;2022-07-23T00:22:08;1.73;;;0.55;;
65189;SDS011;51777;53.570;9.984;2022-07-23T00:24:34;2.17;;;0.80;;
65189;SDS011;51777;53.570;9.984;2022-07-23T00:26:59;1.60;;;0.80;;
65189;SDS011;51777;53.570;9.984;2022-07-23T00:29:25;4.18;;;0.85;;
65189;SDS011;51777;53.570;9.984;2022-07-23T00:31:50;2.35;;;1.00;;
65189;SDS011;51777;53.570;9.984;2022-07-23T00:34:15;4.07;;;0.80;;
65189;SDS011;51777;53.570;9.984;2022-07-23T00:36:41;6.05;;;1.45;;
65189;SDS011;51777;53.570;9.984;2022-07-23T00:39:06;4.75;;;1.20;;
65189;SDS011;51777;53.570;9.984;2022-07-23T00:41:32;4.18;;;1.00;;
65189;SDS011;51777;53.570;9.984;2022-07-23T00:44:19;4.75;;;1.52;;
65189;SDS011;51777;53.570;9.984;2022-07-23T00:46:45;5.55;;;1.10;;
65189;SDS011;51777;53.570;9.984;2022-07-23T00:49:11;3.45;;;1.02;;
65189;SDS011;51777;53.570;9.984;2022-07-23T00:51:37;5.80;;;1.55;;
65189;SDS011;51777;53.570;9.984;2022-07-23T00:54:02;3.25;;;1.02;;
65189;SDS011;51777;53.570;9.984;2022-07-23T00:56:29;5.05;;;1.10;;
65189;SDS011;51777;53.570;9.984;2022-07-23T00:58:55;6.45;;;1.40;;
65189;SDS011;51777;53.570;9.984;2022-07-23T01:01:21;7.93;;;1.48;;
65189;SDS011;51777;53.570;9.984;2022-07-23T01:03:47;1.55;;;0.80;;
65189;SDS011;51777;53.570;9.984;2022-07-23T01:06:12;2.17;;;0.98;;
65189;SDS011;51777;53.570;9.984;2022-07-23T01:08:38;4.03;;;1.20;;
65189;SDS011;51777;53.570;9.984;2022-07-23T01:11:04;5.50;;;1.20;;
65189;SDS011;51777;53.570;9.984;2022-07-23T01:13:30;4.43;;;0.98;;
65189;SDS011;51777;53.570;9.984;2022-07-23T01:15:55;2.78;;;1.00;;
65189;SDS011;51777;53.570;9.984;2022-07-23T01:18:21;6.15;;;1.10;;
65189;SDS011;51777;53.570;9.984;2022-07-23T01:20:46;7.20;;;1.08;;
65189;SDS011;51777;53.570;9.984;2022-07-23T01:23:11;4.78;;;1.02;;
65189;SDS011;51777;53.570;9.984;2022-07-23T01:25:37;3.38;;;0.80;;
65189;SDS011;51777;53.570;9.984;2022-07-23T01:28:02;4.00;;;0.80;;
65189;SDS011;51777;53.570;9.984;2022-07-23T01:30:28;3.05;;;0.90;;
65189;SDS011;51777;53.570;9.984;2022-07-23T01:32:54;3.03;;;0.85;;
65189;SDS011;51777;53.570;9.984;2022-07-23T01:35:19;3.45;;;1.00;;
65189;SDS011;51777;53.570;9.984;2022-07-23T01:37:44;3.50;;;0.90;;
65189;SDS011;51777;53.570;9.984;2022-07-23T01:40:10;4.00;;;1.17;;
65189;SDS011;51777;53.570;9.984;2022-07-23T01:42:36;4.80;;;1.02;;
65189;SDS011;51777;53.570;9.984;2022-07-23T01:45:02;1.58;;;0.80;;
65189;SDS011;51777;53.570;9.984;2022-07-23T01:47:28;3.22;;;0.95;;
65189;SDS011;51777;53.570;9.984;2022-07-23T01:49:53;3.97;;;1.15;;
65189;SDS011;51777;53.570;9.984;2022-07-23T01:52:19;4.80;;;0.88;;
65189;SDS011;51777;53.570;9.984;2022-07-23T01:54:44;4.20;;;0.82;;
65189;SDS011;51777;53.570;9.984;2022-07-23T01:57:10;1.52;;;0.60;;
65189;SDS011;51777;53.570;9.984;2022-07-23T01:59:35;3.22;;;0.95;;
65189;SDS011;51777;53.570;9.984;2022-07-23T02:02:01;4.15;;;0.80;;
65189;SDS011;51777;53.570;9.984;2022-07-23T02:04:28;3.05;;;0.80;;
65189;SDS011;51777;53.570;9.984;2022-07-23T02:06:53;5.20;;;0.95;;
65189;SDS011;51777;53.570;9.984;2022-07-23T02:09:19;2.35;;;0.70;;
65189;SDS011;51777;53.570;9.984;2022-07-23T02:11:44;3.17;;;0.93;;
65189;SDS011;51777;53.570;9.984;2022-07-23T02:14:10;3.15;;;0.80;;
65189;SDS011;51777;53.570;9.984;2022-07-23T02:16:35;4.25;;;0.77;;
65189;SDS011;51777;53.570;9.984;2022-07-23T02:19:01;4.35;;;0.90;;
65189;SDS011;51777;53.570;9.984;2022-07-23T02:21:26;3.03;;;0.85;;
65189;SDS011;51777;53.570;9.984;2022-07-23T02:23:52;3.40;;;0.70;;
65189;SDS011;51777;53.570;9.984;2022-07-23T02:26:17;5.13;;;0.90;;
65189;SDS011;51777;53.570;9.984;2022-07-23T02:28:43;7.63;;;1.10;;
65189;SDS011;51777;53.570;9.984;2022-07-23T02:31:08;3.33;;;0.77;;
65189;SDS011;51777;53.570;9.984;2022-07-23T02:33:33;3.72;;;0.90;;
65189;SDS011;51777;53.570;9.984;2022-07-23T02:35:59;5.15;;;0.90;;
65189;SDS011;51777;53.570;9.984;2022-07-23T02:38:25;3.60;;;0.80;;
65189;SDS011;51777;53.570;9.984;2022-07-23T02:40:50;3.22;;;0.80;;
65189;SDS011;51777;53.570;9.984;2022-07-23T02:43:16;4.07;;;1.10;;
65189;SDS011;51777;53.570;9.984;2022-07-23T02:45:41;3.85;;;1.02;;
65189;SDS011;51777;53.570;9.984;2022-07-23T02:48:07;3.95;;;1.13;;
65189;SDS011;51777;53.570;9.984;2022-07-23T02:50:32;4.57;;;0.90;;
65189;SDS011;51777;53.570;9.984;2022-07-23T02:52:57;6.43;;;1.00;;
65189;SDS011;51777;53.570;9.984;2022-07-23T02:55:23;3.40;;;0.80;;
65189;SDS011;51777;53.570;9.984;2022-07-23T02:57:48;3.72;;;0.82;;
65189;SDS011;51777;53.570;9.984;2022-07-23T03:00:14;5.22;;;1.08;;
65189;SDS011;51777;53.570;9.984;2022-07-23T03:02:39;2.08;;;0.90;;
65189;SDS011;51777;53.570;9.984;2022-07-23T03:05:05;4.25;;;1.02;;
65189;SDS011;51777;53.570;9.984;2022-07-23T03:07:30;4.60;;;0.93;;
65189;SDS011;51777;53.570;9.984;2022-07-23T03:09:56;4.20;;;1.00;;
65189;SDS011;51777;53.570;9.984;2022-07-23T03:12:21;2.55;;;1.02;;
65189;SDS011;51777;53.570;9.984;2022-07-23T03:14:47;3.95;;;0.82;;
65189;SDS011;51777;53.570;9.984;2022-07-23T03:17:12;5.25;;;1.08;;
65189;SDS011;51777;53.570;9.984;2022-07-23T03:19:37;5.28;;;1.10;;
65189;SDS011;51777;53.570;9.984;2022-07-23T03:22:03;7.80;;;1.20;;
65189;SDS011;51777;53.570;9.984;2022-07-23T03:24:29;4.63;;;1.17;;
65189;SDS011;51777;53.570;9.984;2022-07-23T03:27:13;4.60;;;0.88;;
65189;SDS011;51777;53.570;9.984;2022-07-23T03:29:39;1.92;;;0.80;;
65189;SDS011;51777;53.570;9.984;2022-07-23T03:32:05;3.45;;;1.10;;
65189;SDS011;51777;53.570;9.984;2022-07-23T03:34:31;4.15;;;1.02;;
65189;SDS011;51777;53.570;9.984;2022-07-23T03:36:56;3.15;;;0.98;;
65189;SDS011;51777;53.570;9.984;2022-07-23T03:39:21;2.25;;;1.08;;
65189;SDS011;51777;53.570;9.984;2022-07-23T03:41:47;4.40;;;0.98;;
65189;SDS011;51777;53.570;9.984;2022-07-23T03:44:12;3.83;;;1.10;;
65189;SDS011;51777;53.570;9.984;2022-07-23T03:46:38;3.22;;;1.10;;
65189;SDS011;51777;53.570;9.984;2022-07-23T03:49:03;3.47;;;0.90;;
65189;SDS011;51777;53.570;9.984;2022-07-23T03:51:28;7.13;;;1.08;;
65189;SDS011;51777;53.570;9.984;2022-07-23T03:53:54;2.70;;;1.00;;
65189;SDS011;51777;53.570;9.984;2022-07-23T03:56:20;7.25;;;1.20;;
65189;SDS011;51777;53.570;9.984;2022-07-23T03:58:46;7.40;;;1.20;;
65189;SDS011;51777;53.570;9.984;2022-07-23T04:01:11;7.05;;;1.52;;
65189;SDS011;51777;53.570;9.984;2022-07-23T04:03:37;4.95;;;1.30;;
65189;SDS011;51777;53.570;9.984;2022-07-23T04:06:02;4.40;;;0.82;;
65189;SDS011;51777;53.570;9.984;2022-07-23T04:08:28;2.63;;;1.00;;
65189;SDS011;51777;53.570;9.984;2022-07-23T04:10:53;3.47;;;1.40;;
65189;SDS011;51777;53.570;9.984;2022-07-23T04:13:18;5.72;;;1.00;;
65189;SDS011;51777;53.570;9.984;2022-07-23T04:15:44;4.13;;;1.08;;
65189;SDS011;51777;53.570;9.984;2022-07-23T04:18:09;5.18;;;1.40;;
65189;SDS011;51777;53.570;9.984;2022-07-23T04:20:35;3.65;;;1.00;;
65189;SDS011;51777;53.570;9.984;2022-07-23T04:23:00;6.32;;;1.20;;
65189;SDS011;51777;53.570;9.984;2022-07-23T04:25:25;5.95;;;1.45;;
65189;SDS011;51777;53.570;9.984;2022-07-23T04:27:51;8.77;;;1.20;;
65189;SDS011;51777;53.570;9.984;2022-07-23T04:30:16;4.13;;;1.55;;
65189;SDS011;51777;53.570;9.984;2022-07-23T04:32:42;3.38;;;1.10;;
65189;SDS011;51777;53.570;9.984;2022-07-23T04:35:07;5.72;;;1.20;;
65189;SDS011;51777;53.570;9.984;2022-07-23T04:37:33;7.15;;;1.20;;
65189;SDS011;51777;53.570;9.984;2022-07-23T04:39:58;4.68;;;1.20;;
65189;SDS011;51777;53.570;9.984;2022-07-23T04:42:24;2.58;;;1.10;;
65189;SDS011;51777;53.570;9.984;2022-07-23T04:44:50;6.38;;;1.40;;
65189;SDS011;51777;53.570;9.984;2022-07-23T04:47:16;4.65;;;1.40;;
65189;SDS011;51777;53.570;9.984;2022-07-23T04:49:41;8.10;;;1.55;;
65189;SDS011;51777;53.570;9.984;2022-07-23T04:52:06;3.22;;;1.20;;
65189;SDS011;51777;53.570;9.984;2022-07-23T04:54:32;7.40;;;1.60;;
65189;SDS011;51777;53.570;9.984;2022-07-23T04:56:57;4.40;;;1.45;;
65189;SDS011;51777;53.570;9.984;2022-07-23T04:59:23;3.10;;;1.27;;
65189;SDS011;51777;53.570;9.984;2022-07-23T05:01:48;4.72;;;1.38;;
65189;SDS011;51777;53.570;9.984;2022-07-23T05:04:13;3.05;;;1.30;;
65189;SDS011;51777;53.570;9.984;2022-07-23T05:06:39;3.97;;;1.38;;
65189;SDS011;51777;53.570;9.984;2022-07-23T05:09:04;3.38;;;1.10;;
65189;SDS011;51777;53.570;9.984;2022-07-23T05:11:30;3.95;;;1.40;;
65189;SDS011;51777;53.570;9.984;2022-07-23T05:13:55;2.72;;;1.00;;
65189;SDS011;51777;53.570;9.984;2022-07-23T05:16:20;3.35;;;1.05;;
65189;SDS011;51777;53.570;9.984;2022-07-23T05:18:46;5.97;;;1.00;;
65189;SDS011;51777;53.570;9.984;2022-07-23T05:21:11;3.20;;;0.98;;
65189;SDS011;51777;53.570;9.984;2022-07-23T05:23:37;2.85;;;0.70;;
65189;SDS011;51777;53.570;9.984;2022-07-23T05:26:02;2.45;;;0.98;;
65189;SDS011;51777;53.570;9.984;2022-07-23T05:28:27;1.77;;;0.88;;
65189;SDS011;51777;53.570;9.984;2022-07-23T05:30:53;2.60;;;0.93;;
65189;SDS011;51777;53.570;9.984;2022-07-23T05:33:18;2.45;;;0.88;;
65189;SDS011;51777;53.570;9.984;2022-07-23T05:35:44;2.80;;;0.70;;
65189;SDS011;51777;53.570;9.984;2022-07-23T05:38:10;5.65;;;0.80;;
65189;SDS011;51777;53.570;9.984;2022-07-23T05:40:35;5.93;;;0.80;;
65189;SDS011;51777;53.570;9.984;2022-07-23T05:43:01;2.28;;;0.77;;
65189;SDS011;51777;53.570;9.984;2022-07-23T05:45:26;3.88;;;0.90;;
65189;SDS011;51777;53.570;9.984;2022-07-23T05:47:51;1.52;;;0.70;;
65189;SDS011;51777;53.570;9.984;2022-07-23T05:50:17;2.63;;;0.95;;
65189;SDS011;51777;53.570;9.984;2022-07-23T05:52:42;4.10;;;0.63;;
65189;SDS011;51777;53.570;9.984;2022-07-23T05:55:08;2.72;;;0.70;;
65189;SDS011;51777;53.570;9.984;2022-07-23T05:57:35;3.40;;;0.80;;
65189;SDS011;51777;53.570;9.984;2022-07-23T06:00:02;1.75;;;0.70;;
65189;SDS011;51777;53.570;9.984;2022-07-23T06:02:28;4.22;;;0.80;;
65189;SDS011;51777;53.570;9.984;2022-07-23T06:04:54;2.30;;;0.90;;
65189;SDS011;51777;53.570;9.984;2022-07-23T06:07:20;4.53;;;1.10;;
65189;SDS011;51777;53.570;9.984;2022-07-23T06:09:45;4.65;;;1.20;;
65189;SDS011;51777;53.570;9.984;2022-07-23T06:12:12;2.92;;;1.05;;
65189;SDS011;51777;53.570;9.984;2022-07-23T06:14:37;1.77;;;0.82;;
65189;SDS011;51777;53.570;9.984;2022-07-23T06:17:03;5.10;;;1.10;;
65189;SDS011;51777;53.570;9.984;2022-07-23T06:19:28;5.72;;;1.10;;
65189;SDS011;51777;53.570;9.984;2022-07-23T06:21:53;5.05;;;0.90;;
65189;SDS011;51777;53.570;9.984;2022-07-23T06:24:19;5.18;;;1.00;;
65189;SDS011;51777;53.570;9.984;2022-07-23T06:26:44;4.85;;;0.95;;
65189;SDS011;51777;53.570;9.984;2022-07-23T06:29:10;5.60;;;1.08;;
65189;SDS011;51777;53.570;9.984;2022-07-23T06:31:35;6.50;;;1.00;;
65189;SDS011;51777;53.570;9.984;2022-07-23T06:34:00;7.22;;;1.40;;
65189;SDS011;51777;53.570;9.984;2022-07-23T06:36:26;3.75;;;1.30;;
65189;SDS011;51777;53.570;9.984;2022-07-23T06:38:51;4.47;;;0.95;;
65189;SDS011;51777;53.570;9.984;2022-07-23T06:41:17;5.00;;;1.00;;
65189;SDS011;51777;53.570;9.984;2022-07-23T06:43:42;3.42;;;0.98;;
65189;SDS011;51777;53.570;9.984;2022-07-23T06:46:08;5.25;;;1.20;;
65189;SDS011;51777;53.570;9.984;2022-07-23T06:48:33;4.13;;;1.23;;
65189;SDS011;51777;53.570;9.984;2022-07-23T06:51:00;3.60;;;0.88;;
65189;SDS011;51777;53.570;9.984;2022-07-23T06:53:26;5.20;;;1.30;;
65189;SDS011;51777;53.570;9.984;2022-07-23T06:55:52;3.13;;;0.95;;
65189;SDS011;51777;53.570;9.984;2022-07-23T06:58:17;3.58;;;1.05;;
65189;SDS011;51777;53.570;9.984;2022-07-23T07:00:44;4.68;;;2.75;;
65189;SDS011;51777;53.570;9.984;2022-07-23T07:03:09;1.75;;;0.88;;
65189;SDS011;51777;53.570;9.984;2022-07-23T07:05:35;3.17;;;0.90;;
65189;SDS011;51777;53.570;9.984;2022-07-23T07:08:01;1.58;;;0.70;;
65189;SDS011;51777;53.570;9.984;2022-07-23T07:10:26;2.42;;;0.90;;
65189;SDS011;51777;53.570;9.984;2022-07-23T07:12:51;5.18;;;1.90;;
65189;SDS011;51777;53.570;9.984;2022-07-23T07:15:17;5.25;;;0.90;;
65189;SDS011;51777;53.570;9.984;2022-07-23T07:17:42;2.60;;;0.70;;
65189;SDS011;51777;53.570;9.984;2022-07-23T07:20:08;3.63;;;0.70;;
65189;SDS011;51777;53.570;9.984;2022-07-23T07:22:34;1.83;;;1.10;;
65189;SDS011;51777;53.570;9.984;2022-07-23T07:25:00;3.75;;;2.60;;
65189;SDS011;51777;53.570;9.984;2022-07-23T07:27:25;1.48;;;0.80;;
65189;SDS011;51777;53.570;9.984;2022-07-23T07:29:51;1.05;;;0.63;;
65189;SDS011;51777;53.570;9.984;2022-07-23T07:32:16;2.28;;;0.80;;
65189;SDS011;51777;53.570;9.984;2022-07-23T07:34:42;2.58;;;0.57;;
65189;SDS011;51777;53.570;9.984;2022-07-23T07:37:07;2.22;;;0.60;;
65189;SDS011;51777;53.570;9.984;2022-07-23T07:39:32;0.82;;;0.70;;
65189;SDS011;51777;53.570;9.984;2022-07-23T07:41:58;2.47;;;1.00;;
65189;SDS011;51777;53.570;9.984;2022-07-23T07:44:23;5.18;;;0.63;;
65189;SDS011;51777;53.570;9.984;2022-07-23T07:46:48;1.92;;;0.70;;
65189;SDS011;51777;53.570;9.984;2022-07-23T07:49:14;7.50;;;1.00;;
65189;SDS011;51777;53.570;9.984;2022-07-23T07:51:42;2.45;;;0.60;;
65189;SDS011;51777;53.570;9.984;2022-07-23T07:54:07;0.90;;;0.50;;
65189;SDS011;51777;53.570;9.984;2022-07-23T07:56:33;1.73;;;0.40;;
65189;SDS011;51777;53.570;9.984;2022-07-23T07:58:58;3.45;;;0.50;;
65189;SDS011;51777;53.570;9.984;2022-07-23T08:01:24;0.95;;;0.30;;
65189;SDS011;51777;53.570;9.984;2022-07-23T08:03:49;0.93;;;0.57;;
65189;SDS011;51777;53.570;9.984;2022-07-23T08:06:14;2.30;;;0.50;;
65189;SDS011;51777;53.570;9.984;2022-07-23T08:08:40;1.55;;;0.52;;
65189;SDS011;51777;53.570;9.984;2022-07-23T08:11:05;1.90;;;0.60;;
65189;SDS011;51777;53.570;9.984;2022-07-23T08:13:31;3.95;;;0.80;;
65189;SDS011;51777;53.570;9.984;2022-07-23T08:15:56;1.08;;;0.50;;
65189;SDS011;51777;53.570;9.984;2022-07-23T08:18:21;1.30;;;0.40;;
65189;SDS011;51777;53.570;9.984;2022-07-23T08:20:47;1.15;;;0.57;;
65189;SDS011;51777;53.570;9.984;2022-07-23T08:23:12;0.85;;;0.45;;
65189;SDS011;51777;53.570;9.984;2022-07-23T08:25:38;2.58;;;0.50;;
65189;SDS011;51777;53.570;9.984;2022-07-23T08:28:06;1.55;;;0.52;;
65189;SDS011;51777;53.570;9.984;2022-07-23T08:30:33;2.17;;;0.50;;
65189;SDS011;51777;53.570;9.984;2022-07-23T08:33:19;1.05;;;0.50;;
65189;SDS011;51777;53.570;9.984;2022-07-23T08:35:45;0.75;;;0.50;;
65189;SDS011;51777;53.570;9.984;2022-07-23T08:38:13;2.28;;;0.50;;
65189;SDS011;51777;53.570;9.984;2022-07-23T08:40:41;1.35;;;0.35;;
65189;SDS011;51777;53.570;9.984;2022-07-23T08:43:19;1.33;;;0.57;;
65189;SDS011;51777;53.570;9.984;2022-07-23T08:45:47;1.92;;;0.70;;
65189;SDS011;51777;53.570;9.984;2022-07-23T08:48:15;1.48;;;0.70;;
65189;SDS011;51777;53.570;9.984;2022-07-23T08:50:43;1.08;;;0.45;;
65189;SDS011;51777;53.570;9.984;2022-07-23T08:53:10;1.98;;;0.50;;
65189;SDS011;51777;53.570;9.984;2022-07-23T08:55:36;2.00;;;0.38;;
65189;SDS011;51777;53.570;9.984;2022-07-23T08:58:02;0.57;;;0.40;;
65189;SDS011;51777;53.570;9.984;2022-07-23T09:00:27;0.88;;;0.50;;
65189;SDS011;51777;53.570;9.984;2022-07-23T09:02:54;1.15;;;0.40;;
65189;SDS011;51777;53.570;9.984;2022-07-23T09:05:19;1.55;;;0.30;;
65189;SDS011;51777;53.570;9.984;2022-07-23T09:11:18;0.73;;;0.30;;
65189;SDS011;51777;53.570;9.984;2022-07-23T09:16:30;1.67;;;0.57;;
65189;SDS011;51777;53.570;9.984;2022-07-23T09:18:58;1.02;;;0.50;;
65189;SDS011;51777;53.570;9.984;2022-07-23T09:21:37;1.70;;;0.50;;
65189;SDS011;51777;53.570;9.984;2022-07-23T09:26:37;1.63;;;0.40;;
65189;SDS011;51777;53.570;9.984;2022-07-23T09:34:19;0.90;;;0.50;;
65189;SDS011;51777;53.570;9.984;2022-07-23T09:36:47;1.58;;;0.60;;
65189;SDS011;51777;53.570;9.984;2022-07-23T09:39:13;0.73;;;0.40;;
65189;SDS011;51777;53.570;9.984;2022-07-23T09:41:42;1.08;;;0.50;;
65189;SDS011;51777;53.570;9.984;2022-07-23T09:46:39;0.90;;;0.60;;
65189;SDS011;51777;53.570;9.984;2022-07-23T09:49:15;0.43;;;0.30;;
65189;SDS011;51777;53.570;9.984;2022-07-23T09:51:51;0.82;;;0.40;;
65189;SDS011;51777;53.570;9.984;2022-07-23T09:54:33;2.42;;;0.50;;
65189;SDS011;51777;53.570;9.984;2022-07-23T09:57:02;1.08;;;0.50;;
65189;SDS011;51777;53.570;9.984;2022-07-23T09:59:32;1.02;;;0.50;;
65189;SDS011;51777;53.570;9.984;2022-07-23T10:02:02;1.10;;;0.47;;
65189;SDS011;51777;53.570;9.984;2022-07-23T10:04:29;3.92;;;0.57;;
65189;SDS011;51777;53.570;9.984;2022-07-23T10:06:57;0.35;;;0.30;;
65189;SDS011;51777;53.570;9.984;2022-07-23T10:09:28;1.80;;;0.50;;
65189;SDS011;51777;53.570;9.984;2022-07-23T10:11:59;1.35;;;0.40;;
65189;SDS011;51777;53.570;9.984;2022-07-23T10:14:47;3.25;;;0.47;;
65189;SDS011;51777;53.570;9.984;2022-07-23T10:17:13;0.57;;;0.28;;
65189;SDS011;51777;53.570;9.984;2022-07-23T10:19:39;2.38;;;0.50;;
65189;SDS011;51777;53.570;9.984;2022-07-23T10:22:09;2.75;;;0.40;;
65189;SDS011;51777;53.570;9.984;2022-07-23T10:24:49;0.77;;;0.30;;
65189;SDS011;51777;53.570;9.984;2022-07-23T10:30:27;1.33;;;0.50;;
65189;SDS011;51777;53.570;9.984;2022-07-23T10:36:18;2.00;;;0.50;;
65189;SDS011;51777;53.570;9.984;2022-07-23T10:41:13;1.80;;;0.40;;
65189;SDS011;51777;53.570;9.984;2022-07-23T10:43:39;1.80;;;0.50;;
65189;SDS011;51777;53.570;9.984;2022-07-23T10:46:20;4.38;;;0.50;;
65189;SDS011;51777;53.570;9.984;2022-07-23T10:54:56;1.55;;;0.40;;
65189;SDS011;51777;53.570;9.984;2022-07-23T10:57:48;0.50;;;0.32;;
65189;SDS011;51777;53.570;9.984;2022-07-23T11:00:22;2.13;;;0.30;;
65189;SDS011;51777;53.570;9.984;2022-07-23T11:02:52;1.38;;;0.47;;
65189;SDS011;51777;53.570;9.984;2022-07-23T11:05:20;0.70;;;0.40;;
65189;SDS011;51777;53.570;9.984;2022-07-23T11:10:35;0.95;;;0.40;;
65189;SDS011;51777;53.570;9.984;2022-07-23T11:26:42;0.30;;;0.25;;
65189;SDS011;51777;53.570;9.984;2022-07-23T11:32:18;0.75;;;0.20;;
65189;SDS011;51777;53.570;9.984;2022-07-23T11:34:43;2.97;;;0.35;;
65189;SDS011;51777;53.570;9.984;2022-07-23T11:37:26;0.88;;;0.30;;
65189;SDS011;51777;53.570;9.984;2022-07-23T11:39:55;0.60;;;0.38;;
65189;SDS011;51777;53.570;9.984;2022-07-23T11:42:22;8.88;;;0.63;;
65189;SDS011;51777;53.570;9.984;2022-07-23T11:44:49;0.95;;;0.30;;
65189;SDS011;51777;53.570;9.984;2022-07-23T11:47:15;1.92;;;0.20;;
65189;SDS011;51777;53.570;9.984;2022-07-23T11:49:54;3.40;;;0.30;;
65189;SDS011;51777;53.570;9.984;2022-07-23T11:52:27;1.23;;;0.50;;
65189;SDS011;51777;53.570;9.984;2022-07-23T11:54:55;0.77;;;0.35;;
65189;SDS011;51777;53.570;9.984;2022-07-23T11:57:26;1.20;;;0.52;;
65189;SDS011;51777;53.570;9.984;2022-07-23T12:00:07;2.10;;;0.40;;
65189;SDS011;51777;53.570;9.984;2022-07-23T12:02:41;2.55;;;0.50;;
65189;SDS011;51777;53.570;9.984;2022-07-23T12:05:16;2.25;;;0.60;;
65189;SDS011;51777;53.570;9.984;2022-07-23T12:07:46;1.42;;;0.63;;
65189;SDS011;51777;53.570;9.984;2022-07-23T12:10:18;2.38;;;0.85;;
65189;SDS011;51777;53.570;9.984;2022-07-23T12:12:52;1.75;;;0.63;;
65189;SDS011;51777;53.570;9.984;2022-07-23T12:15:36;1.02;;;0.40;;
65189;SDS011;51777;53.570;9.984;2022-07-23T12:18:05;2.83;;;0.80;;
65189;SDS011;51777;53.570;9.984;2022-07-23T12:20:35;4.00;;;1.00;;
65189;SDS011;51777;53.570;9.984;2022-07-23T12:23:04;3.13;;;0.63;;
65189;SDS011;51777;53.570;9.984;2022-07-23T12:25:33;2.47;;;0.70;;
65189;SDS011;51777;53.570;9.984;2022-07-23T12:28:08;1.95;;;0.57;;
65189;SDS011;51777;53.570;9.984;2022-07-23T12:30:39;0.93;;;0.60;;
65189;SDS011;51777;53.570;9.984;2022-07-23T12:33:07;5.28;;;0.80;;
65189;SDS011;51777;53.570;9.984;2022-07-23T12:35:43;1.27;;;0.63;;
65189;SDS011;51777;53.570;9.984;2022-07-23T12:38:11;3.55;;;0.60;;
65189;SDS011;51777;53.570;9.984;2022-07-23T12:40:42;3.03;;;0.52;;
65189;SDS011;51777;53.570;9.984;2022-07-23T12:43:31;4.03;;;0.85;;
65189;SDS011;51777;53.570;9.984;2022-07-23T12:46:11;2.90;;;0.90;;
65189;SDS011;51777;53.570;9.984;2022-07-23T12:51:17;2.33;;;0.80;;
65189;SDS011;51777;53.570;9.984;2022-07-23T12:53:44;1.67;;;0.60;;
65189;SDS011;51777;53.570;9.984;2022-07-23T12:59:05;1.80;;;0.57;;
65189;SDS011;51777;53.570;9.984;2022-07-23T13:01:44;6.63;;;0.70;;
65189;SDS011;51777;53.570;9.984;2022-07-23T13:04:21;2.75;;;0.60;;
65189;SDS011;51777;53.570;9.984;2022-07-23T13:09:22;0.98;;;0.50;;
65189;SDS011;51777;53.570;9.984;2022-07-23T13:11:57;2.83;;;0.55;;
65189;SDS011;51777;53.570;9.984;2022-07-23T13:14:24;2.30;;;0.60;;
65189;SDS011;51777;53.570;9.984;2022-07-23T13:16:51;3.22;;;0.80;;
65189;SDS011;51777;53.570;9.984;2022-07-23T13:19:17;0.95;;;0.50;;
65189;SDS011;51777;53.570;9.984;2022-07-23T13:21:43;4.20;;;0.65;;
65189;SDS011;51777;53.570;9.984;2022-07-23T13:24:09;1.30;;;0.52;;
65189;SDS011;51777;53.570;9.984;2022-07-23T13:26:36;2.40;;;0.70;;
65189;SDS011;51777;53.570;9.984;2022-07-23T13:29:02;1.63;;;0.43;;
65189;SDS011;51777;53.570;9.984;2022-07-23T13:31:28;2.42;;;0.80;;
65189;SDS011;51777;53.570;9.984;2022-07-23T13:33:53;1.85;;;0.65;;
65189;SDS011;51777;53.570;9.984;2022-07-23T13:36:18;3.05;;;0.70;;
65189;SDS011;51777;53.570;9.984;2022-07-23T13:38:44;1.63;;;0.70;;
65189;SDS011;51777;53.570;9.984;2022-07-23T13:41:09;1.85;;;0.80;;
65189;SDS011;51777;53.570;9.984;2022-07-23T13:43:35;2.65;;;0.60;;
65189;SDS011;51777;53.570;9.984;2022-07-23T13:46:00;2.35;;;0.50;;
65189;SDS011;51777;53.570;9.984;2022-07-23T13:48:26;0.40;;;0.32;;
65189;SDS011;51777;53.570;9.984;2022-07-23T13:50:51;2.92;;;0.50;;
65189;SDS011;51777;53.570;9.984;2022-07-23T13:53:18;1.50;;;0.70;;
65189;SDS011;51777;53.570;9.984;2022-07-23T13:55:46;1.73;;;0.60;;
65189;SDS011;51777;53.570;9.984;2022-07-23T13:58:12;0.80;;;0.50;;
65189;SDS011;51777;53.570;9.984;2022-07-23T14:00:40;1.35;;;0.40;;
65189;SDS011;51777;53.570;9.984;2022-07-23T14:03:10;1.30;;;0.63;;
65189;SDS011;51777;53.570;9.984;2022-07-23T14:05:35;1.98;;;0.80;;
65189;SDS011;51777;53.570;9.984;2022-07-23T14:08:02;5.00;;;0.60;;
65189;SDS011;51777;53.570;9.984;2022-07-23T14:10:27;4.07;;;0.60;;
65189;SDS011;51777;53.570;9.984;2022-07-23T14:12:53;1.30;;;0.50;;
65189;SDS011;51777;53.570;9.984;2022-07-23T14:15:21;2.20;;;0.65;;
65189;SDS011;51777;53.570;9.984;2022-07-23T14:17:47;1.58;;;0.60;;
65189;SDS011;51777;53.570;9.984;2022-07-23T14:20:13;3.15;;;0.50;;
65189;SDS011;51777;53.570;9.984;2022-07-23T14:22:39;2.95;;;1.00;;
65189;SDS011;51777;53.570;9.984;2022-07-23T14:25:04;1.77;;;0.60;;
65189;SDS011;51777;53.570;9.984;2022-07-23T14:27:31;0.85;;;0.40;;
65189;SDS011;51777;53.570;9.984;2022-07-23T14:29:58;4.47;;;0.30;;
65189;SDS011;51777;53.570;9.984;2022-07-23T14:32:24;1.77;;;0.47;;
65189;SDS011;51777;53.570;9.984;2022-07-23T14:34:49;4.38;;;0.63;;
65189;SDS011;51777;53.570;9.984;2022-07-23T14:37:15;2.10;;;0.73;;
65189;SDS011;51777;53.570;9.984;2022-07-23T14:39:41;1.25;;;0.40;;
65189;SDS011;51777;53.570;9.984;2022-07-23T14:42:08;1.63;;;0.50;;
65189;SDS011;51777;53.570;9.984;2022-07-23T14:44:34;2.47;;;0.70;;
65189;SDS011;51777;53.570;9.984;2022-07-23T14:47:01;2.88;;;0.70;;
65189;SDS011;51777;53.570;9.984;2022-07-23T14:49:29;1.65;;;0.52;;
65189;SDS011;51777;53.570;9.984;2022-07-23T14:51:54;4.18;;;0.63;;
65189;SDS011;51777;53.570;9.984;2022-07-23T14:54:20;2.55;;;0.70;;
65189;SDS011;51777;53.570;9.984;2022-07-23T14:56:46;1.90;;;0.57;;
65189;SDS011;51777;53.570;9.984;2022-07-23T14:59:11;2.38;;;0.50;;
65189;SDS011;51777;53.570;9.984;2022-07-23T15:01:37;2.03;;;0.60;;
65189;SDS011;51777;53.570;9.984;2022-07-23T15:04:03;1.55;;;0.60;;
65189;SDS011;51777;53.570;9.984;2022-07-23T15:06:29;2.47;;;0.60;;
65189;SDS011;51777;53.570;9.984;2022-07-23T15:08:55;4.38;;;0.75;;
65189;SDS011;51777;53.570;9.984;2022-07-23T15:11:20;2.15;;;0.70;;
65189;SDS011;51777;53.570;9.984;2022-07-23T15:13:46;1.83;;;0.73;;
65189;SDS011;51777;53.570;9.984;2022-07-23T15:16:11;1.00;;;0.60;;
65189;SDS011;51777;53.570;9.984;2022-07-23T15:18:37;1.70;;;0.52;;
65189;SDS011;51777;53.570;9.984;2022-07-23T15:21:02;4.60;;;0.60;;
65189;SDS011;51777;53.570;9.984;2022-07-23T15:23:28;2.13;;;0.63;;
65189;SDS011;51777;53.570;9.984;2022-07-23T15:25:54;3.30;;;1.00;;
65189;SDS011;51777;53.570;9.984;2022-07-23T15:28:20;1.15;;;0.68;;
65189;SDS011;51777;53.570;9.984;2022-07-23T15:30:46;2.00;;;0.60;;
65189;SDS011;51777;53.570;9.984;2022-07-23T15:33:11;2.08;;;0.73;;
65189;SDS011;51777;53.570;9.984;2022-07-23T15:35:37;2.50;;;0.68;;
65189;SDS011;51777;53.570;9.984;2022-07-23T15:38:03;3.95;;;0.50;;
65189;SDS011;51777;53.570;9.984;2022-07-23T15:40:28;1.67;;;0.65;;
65189;SDS011;51777;53.570;9.984;2022-07-23T15:42:54;2.72;;;0.70;;
65189;SDS011;51777;53.570;9.984;2022-07-23T15:45:19;2.90;;;0.88;;